sensor_id;sensor_type;location;lat;lon;timestamp;pressure;altitude;pressure_sealevel;temperature;humidity
49583;BME280;36329;48.816;44.624;2023-04-25T00:02:19;100488;;;11.8;100
49583;BME280;36329;48.816;44.624;2023-04-25T00:05:21;100485;;;11.9;100
49583;BME280;36329;48.816;44.624;2023-04-25T00:08:24;100470;;;12;100
49583;BME280;36329;48.816;44.624;2023-04-25T00:11:27;100466;;;12;100
49583;BME280;36329;48.816;44.624;2023-04-25T00:14:29;100469;;;12;100
49583;BME280;36329;48.816;44.624;2023-04-25T00:17:32;100453;;;12;100
49583;BME280;36329;48.816;44.624;2023-04-25T00:20:35;100445;;;11.9;100
49583;BME280;36329;48.816;44.624;2023-04-25T00:23:37;100455;;;12;100
49583;BME280;36329;48.816;44.624;2023-04-25T00:26:39;100451;;;12;100
49583;BME280;36329;48.816;44.624;2023-04-25T00:29:42;100442;;;12;100
49583;BME280;36329;48.816;44.624;2023-04-25T00:32:45;100447;;;12;100
49583;BME280;36329;48.816;44.624;2023-04-25T00:35:47;100447;;;12.1;100
49583;BME280;36329;48.816;44.624;2023-04-25T00:38:49;100443;;;12.1;100
49583;BME280;36329;48.816;44.624;2023-04-25T00:41:54;100434;;;12.1;100
49583;BME280;36329;48.816;44.624;2023-04-25T00:44:59;100418;;;12.1;100
49583;BME280;36329;48.816;44.624;2023-04-25T00:48:03;100417;;;12.1;100
49583;BME280;36329;48.816;44.624;2023-04-25T00:51:06;100423;;;12.1;100
49583;BME280;36329;48.816;44.624;2023-04-25T00:54:08;100423;;;12.2;100
49583;BME280;36329;48.816;44.624;2023-04-25T00:57:10;100420;;;12.3;100
49583;BME280;36329;48.816;44.624;2023-04-25T01:00:14;100420;;;12.2;100
49583;BME280;36329;48.816;44.624;2023-04-25T01:03:17;100413;;;12.2;100
49583;BME280;36329;48.816;44.624;2023-04-25T01:06:19;100408;;;12.2;100
49583;BME280;36329;48.816;44.624;2023-04-25T01:09:22;100403;;;12.2;100
49583;BME280;36329;48.816;44.624;2023-04-25T01:12:24;100395;;;12.2;100
49583;BME280;36329;48.816;44.624;2023-04-25T01:15:26;100392;;;12.2;100
49583;BME280;36329;48.816;44.624;2023-04-25T01:18:29;100392;;;12.2;100
49583;BME280;36329;48.816;44.624;2023-04-25T01:21:32;100382;;;12.1;100
49583;BME280;36329;48.816;44.624;2023-04-25T01:24:34;100375;;;12.1;100
49583;BME280;36329;48.816;44.624;2023-04-25T01:27:37;100368;;;12.1;100
49583;BME280;36329;48.816;44.624;2023-04-25T01:30:41;100364;;;12.1;100
49583;BME280;36329;48.816;44.624;2023-04-25T01:33:44;100349;;;12.1;100
49583;BME280;36329;48.816;44.624;2023-04-25T01:36:47;100345;;;12.1;100
49583;BME280;36329;48.816;44.624;2023-04-25T01:39:50;100348;;;12;100
49583;BME280;36329;48.816;44.624;2023-04-25T01:42:53;100353;;;12;100
49583;BME280;36329;48.816;44.624;2023-04-25T01:45:57;100345;;;12.1;100
49583;BME280;36329;48.816;44.624;2023-04-25T01:48:59;100353;;;12.2;100
49583;BME280;36329;48.816;44.624;2023-04-25T01:52:02;100328;;;12.2;100
49583;BME280;36329;48.816;44.624;2023-04-25T01:55:06;100324;;;12.1;100
49583;BME280;36329;48.816;44.624;2023-04-25T01:58:08;100329;;;12.1;100
49583;BME280;36329;48.816;44.624;2023-04-25T02:01:11;100341;;;12.1;100
49583;BME280;36329;48.816;44.624;2023-04-25T02:04:13;100353;;;12.1;100
49583;BME280;36329;48.816;44.624;2023-04-25T02:07:15;100357;;;12.3;100
49583;BME280;36329;48.816;44.624;2023-04-25T02:10:17;100356;;;12.3;100
49583;BME280;36329;48.816;44.624;2023-04-25T02:13:20;100350;;;12.4;100
49583;BME280;36329;48.816;44.624;2023-04-25T02:16:23;100339;;;12.4;100
49583;BME280;36329;48.816;44.624;2023-04-25T02:19:29;100330;;;12.4;100
49583;BME280;36329;48.816;44.624;2023-04-25T02:22:31;100325;;;12.3;100
49583;BME280;36329;48.816;44.624;2023-04-25T02:25:34;100337;;;12.1;100
49583;BME280;36329;48.816;44.624;2023-04-25T02:28:36;100341;;;12.1;100
49583;BME280;36329;48.816;44.624;2023-04-25T02:31:38;100335;;;12;100
49583;BME280;36329;48.816;44.624;2023-04-25T02:34:40;100334;;;12.1;100
49583;BME280;36329;48.816;44.624;2023-04-25T02:37:42;100320;;;12.1;100
49583;BME280;36329;48.816;44.624;2023-04-25T02:40:44;100291;;;12.2;100
49583;BME280;36329;48.816;44.624;2023-04-25T02:43:47;100305;;;12.1;100
49583;BME280;36329;48.816;44.624;2023-04-25T02:46:49;100298;;;12.1;100
49583;BME280;36329;48.816;44.624;2023-04-25T02:49:52;100297;;;12;100
49583;BME280;36329;48.816;44.624;2023-04-25T02:52:54;100295;;;12;100
49583;BME280;36329;48.816;44.624;2023-04-25T02:55:56;100296;;;12.1;100
49583;BME280;36329;48.816;44.624;2023-04-25T02:58:58;100292;;;12.1;100
49583;BME280;36329;48.816;44.624;2023-04-25T03:02:00;100293;;;12.2;100
49583;BME280;36329;48.816;44.624;2023-04-25T03:05:03;100297;;;12.1;100
49583;BME280;36329;48.816;44.624;2023-04-25T03:08:07;100320;;;12.3;100
49583;BME280;36329;48.816;44.624;2023-04-25T03:11:09;100315;;;12.3;100
49583;BME280;36329;48.816;44.624;2023-04-25T03:14:12;100305;;;12.4;100
49583;BME280;36329;48.816;44.624;2023-04-25T03:17:14;100283;;;12.3;100
49583;BME280;36329;48.816;44.624;2023-04-25T03:20:17;100274;;;12.2;100
49583;BME280;36329;48.816;44.624;2023-04-25T03:23:19;100283;;;12.2;100
49583;BME280;36329;48.816;44.624;2023-04-25T03:26:21;100290;;;12.2;100
49583;BME280;36329;48.816;44.624;2023-04-25T03:29:23;100296;;;12.1;100
49583;BME280;36329;48.816;44.624;2023-04-25T03:32:25;100300;;;12;100
49583;BME280;36329;48.816;44.624;2023-04-25T03:35:27;100299;;;12.2;100
49583;BME280;36329;48.816;44.624;2023-04-25T03:38:29;100309;;;12.1;100
49583;BME280;36329;48.816;44.624;2023-04-25T03:41:31;100335;;;12;100
49583;BME280;36329;48.816;44.624;2023-04-25T03:44:33;100341;;;12;100
49583;BME280;36329;48.816;44.624;2023-04-25T03:47:35;100334;;;12.1;100
49583;BME280;36329;48.816;44.624;2023-04-25T03:50:37;100321;;;12;100
49583;BME280;36329;48.816;44.624;2023-04-25T03:53:40;100314;;;11.9;100
49583;BME280;36329;48.816;44.624;2023-04-25T03:56:42;100318;;;11.8;100
49583;BME280;36329;48.816;44.624;2023-04-25T03:59:44;100325;;;11.9;100
49583;BME280;36329;48.816;44.624;2023-04-25T04:02:46;100333;;;11.9;100
49583;BME280;36329;48.816;44.624;2023-04-25T04:05:48;100337;;;11.8;100
49583;BME280;36329;48.816;44.624;2023-04-25T04:08:50;100347;;;11.9;100
49583;BME280;36329;48.816;44.624;2023-04-25T04:11:53;100340;;;12.2;100
49583;BME280;36329;48.816;44.624;2023-04-25T04:14:56;100336;;;12.4;100
49583;BME280;36329;48.816;44.624;2023-04-25T04:17:58;100330;;;12.5;100
49583;BME280;36329;48.816;44.624;2023-04-25T04:21:01;100324;;;12.5;100
49583;BME280;36329;48.816;44.624;2023-04-25T04:24:04;100327;;;12.8;100
49583;BME280;36329;48.816;44.624;2023-04-25T04:27:06;100321;;;13.1;100
49583;BME280;36329;48.816;44.624;2023-04-25T04:30:08;100323;;;13.2;100
49583;BME280;36329;48.816;44.624;2023-04-25T04:33:12;100324;;;13.3;100
49583;BME280;36329;48.816;44.624;2023-04-25T04:36:14;100328;;;13.1;100
49583;BME280;36329;48.816;44.624;2023-04-25T04:39:17;100321;;;13.3;100
49583;BME280;36329;48.816;44.624;2023-04-25T04:42:20;100312;;;13.3;100
49583;BME280;36329;48.816;44.624;2023-04-25T04:45:23;100314;;;13.3;100
49583;BME280;36329;48.816;44.624;2023-04-25T04:48:25;100298;;;13.3;100
49583;BME280;36329;48.816;44.624;2023-04-25T04:51:28;100301;;;13.2;100
49583;BME280;36329;48.816;44.624;2023-04-25T04:54:30;100305;;;13.2;100
49583;BME280;36329;48.816;44.624;2023-04-25T04:57:32;100308;;;13.4;100
49583;BME280;36329;48.816;44.624;2023-04-25T05:00:34;100311;;;13.7;100
49583;BME280;36329;48.816;44.624;2023-04-25T05:03:36;100317;;;13.7;100
49583;BME280;36329;48.816;44.624;2023-04-25T05:06:38;100318;;;13.6;100
49583;BME280;36329;48.816;44.624;2023-04-25T05:09:40;100308;;;13.8;100
49583;BME280;36329;48.816;44.624;2023-04-25T05:12:42;100309;;;13.6;100
49583;BME280;36329;48.816;44.624;2023-04-25T05:15:45;100305;;;13.6;100
49583;BME280;36329;48.816;44.624;2023-04-25T05:18:47;100300;;;13.7;100
49583;BME280;36329;48.816;44.624;2023-04-25T05:21:49;100311;;;13.8;100
49583;BME280;36329;48.816;44.624;2023-04-25T05:24:52;100323;;;14.1;100
49583;BME280;36329;48.816;44.624;2023-04-25T05:28:10;100328;;;14;100
49583;BME280;36329;48.816;44.624;2023-04-25T05:31:12;100331;;;14.1;100
49583;BME280;36329;48.816;44.624;2023-04-25T05:34:14;100330;;;14.1;100
49583;BME280;36329;48.816;44.624;2023-04-25T05:37:17;100331;;;14.1;100
49583;BME280;36329;48.816;44.624;2023-04-25T05:40:18;100334;;;14.3;100
49583;BME280;36329;48.816;44.624;2023-04-25T05:43:22;100328;;;14.2;100
49583;BME280;36329;48.816;44.624;2023-04-25T05:46:25;100331;;;14.1;100
49583;BME280;36329;48.816;44.624;2023-04-25T05:49:27;100339;;;14;100
49583;BME280;36329;48.816;44.624;2023-04-25T05:52:29;100338;;;13.9;100
49583;BME280;36329;48.816;44.624;2023-04-25T05:55:32;100340;;;13.7;100
49583;BME280;36329;48.816;44.624;2023-04-25T05:58:34;100348;;;13.7;100
49583;BME280;36329;48.816;44.624;2023-04-25T06:01:36;100335;;;13.9;100
49583;BME280;36329;48.816;44.624;2023-04-25T06:04:38;100327;;;14.1;100
49583;BME280;36329;48.816;44.624;2023-04-25T06:07:41;100331;;;14.4;100
49583;BME280;36329;48.816;44.624;2023-04-25T06:10:43;100329;;;14.5;100
49583;BME280;36329;48.816;44.624;2023-04-25T06:13:46;100336;;;14.3;100
49583;BME280;36329;48.816;44.624;2023-04-25T06:16:48;100343;;;14.3;100
49583;BME280;36329;48.816;44.624;2023-04-25T06:19:50;100346;;;14.5;100
49583;BME280;36329;48.816;44.624;2023-04-25T06:22:52;100353;;;14.5;100
49583;BME280;36329;48.816;44.624;2023-04-25T06:25:55;100354;;;14.6;100
49583;BME280;36329;48.816;44.624;2023-04-25T06:28:57;100357;;;14.7;100
49583;BME280;36329;48.816;44.624;2023-04-25T06:32:01;100356;;;14.6;100
49583;BME280;36329;48.816;44.624;2023-04-25T06:35:04;100352;;;14.3;100
49583;BME280;36329;48.816;44.624;2023-04-25T06:38:06;100357;;;14.1;100
49583;BME280;36329;48.816;44.624;2023-04-25T06:41:09;100360;;;14.3;100
49583;BME280;36329;48.816;44.624;2023-04-25T06:44:12;100356;;;14.3;100
49583;BME280;36329;48.816;44.624;2023-04-25T06:47:22;100359;;;14.5;100
49583;BME280;36329;48.816;44.624;2023-04-25T06:50:30;100350;;;14.9;100
49583;BME280;36329;48.816;44.624;2023-04-25T06:53:34;100329;;;15.5;100
49583;BME280;36329;48.816;44.624;2023-04-25T06:56:40;100336;;;15.8;100
49583;BME280;36329;48.816;44.624;2023-04-25T06:59:50;100341;;;15.6;100
49583;BME280;36329;48.816;44.624;2023-04-25T07:02:53;100346;;;15.5;100
49583;BME280;36329;48.816;44.624;2023-04-25T07:05:56;100340;;;15.7;100
49583;BME280;36329;48.816;44.624;2023-04-25T07:08:58;100344;;;15.8;100
49583;BME280;36329;48.816;44.624;2023-04-25T07:12:01;100345;;;15.7;100
49583;BME280;36329;48.816;44.624;2023-04-25T07:15:03;100346;;;15.3;100
49583;BME280;36329;48.816;44.624;2023-04-25T07:18:07;100338;;;15.3;100
49583;BME280;36329;48.816;44.624;2023-04-25T07:21:09;100349;;;15.3;100
49583;BME280;36329;48.816;44.624;2023-04-25T07:24:11;100347;;;15.4;100
49583;BME280;36329;48.816;44.624;2023-04-25T07:27:13;100352;;;15.6;100
49583;BME280;36329;48.816;44.624;2023-04-25T07:30:15;100348;;;15.8;100
49583;BME280;36329;48.816;44.624;2023-04-25T07:33:18;100343;;;16;100
49583;BME280;36329;48.816;44.624;2023-04-25T07:36:20;100351;;;16.5;97.9
49583;BME280;36329;48.816;44.624;2023-04-25T07:39:22;100349;;;16.4;98
49583;BME280;36329;48.816;44.624;2023-04-25T07:42:24;100345;;;16.2;97.6
49583;BME280;36329;48.816;44.624;2023-04-25T07:45:26;100347;;;16.1;96.9
49583;BME280;36329;48.816;44.624;2023-04-25T07:48:28;100345;;;15.7;100
49583;BME280;36329;48.816;44.624;2023-04-25T07:51:30;100344;;;15.9;99
49583;BME280;36329;48.816;44.624;2023-04-25T07:54:32;100344;;;16.3;94.9
49583;BME280;36329;48.816;44.624;2023-04-25T07:57:36;100341;;;17.3;89.8
49583;BME280;36329;48.816;44.624;2023-04-25T08:00:38;100350;;;17.9;85.8
49583;BME280;36329;48.816;44.624;2023-04-25T08:03:41;100352;;;18;82.1
49583;BME280;36329;48.816;44.624;2023-04-25T08:06:43;100352;;;18.3;81.7
49583;BME280;36329;48.816;44.624;2023-04-25T08:09:45;100347;;;18.7;79.5
49583;BME280;36329;48.816;44.624;2023-04-25T08:12:47;100341;;;18.7;78.6
49583;BME280;36329;48.816;44.624;2023-04-25T08:15:49;100339;;;18.9;77.6
49583;BME280;36329;48.816;44.624;2023-04-25T08:18:51;100328;;;18.6;78.3
49583;BME280;36329;48.816;44.624;2023-04-25T08:21:54;100334;;;17.7;82.5
49583;BME280;36329;48.816;44.624;2023-04-25T08:24:56;100324;;;17.6;83.1
49583;BME280;36329;48.816;44.624;2023-04-25T08:27:58;100334;;;17.8;83.9
49583;BME280;36329;48.816;44.624;2023-04-25T08:31:00;100340;;;17.8;82.7
49583;BME280;36329;48.816;44.624;2023-04-25T08:34:02;100351;;;17.5;85
49583;BME280;36329;48.816;44.624;2023-04-25T08:37:04;100346;;;17.4;86.1
49583;BME280;36329;48.816;44.624;2023-04-25T08:40:09;100342;;;17.2;87
49583;BME280;36329;48.816;44.624;2023-04-25T08:43:13;100341;;;17.3;86.5
49583;BME280;36329;48.816;44.624;2023-04-25T08:46:17;100344;;;17.2;87.2
49583;BME280;36329;48.816;44.624;2023-04-25T08:49:20;100349;;;17.4;86.2
49583;BME280;36329;48.816;44.624;2023-04-25T08:52:23;100355;;;17.3;85.2
49583;BME280;36329;48.816;44.624;2023-04-25T08:55:26;100355;;;17.1;85.8
49583;BME280;36329;48.816;44.624;2023-04-25T08:58:28;100353;;;17.1;86.4
49583;BME280;36329;48.816;44.624;2023-04-25T09:01:30;100346;;;17.2;87.5
49583;BME280;36329;48.816;44.624;2023-04-25T09:04:32;100341;;;17.3;86.5
49583;BME280;36329;48.816;44.624;2023-04-25T09:07:35;100329;;;17.2;85.5
49583;BME280;36329;48.816;44.624;2023-04-25T09:10:37;100323;;;17.5;85.1
49583;BME280;36329;48.816;44.624;2023-04-25T09:13:39;100321;;;17.5;85.3
49583;BME280;36329;48.816;44.624;2023-04-25T09:16:58;100327;;;17.6;83
49583;BME280;36329;48.816;44.624;2023-04-25T09:20:06;100323;;;17.6;83.4
49583;BME280;36329;48.816;44.624;2023-04-25T09:23:10;100328;;;17.9;81.8
49583;BME280;36329;48.816;44.624;2023-04-25T09:26:14;100336;;;18.1;78.9
49583;BME280;36329;48.816;44.624;2023-04-25T09:29:17;100340;;;17.9;80.8
49583;BME280;36329;48.816;44.624;2023-04-25T09:32:20;100337;;;17.6;82.9
49583;BME280;36329;48.816;44.624;2023-04-25T09:35:24;100342;;;17.8;83.4
49583;BME280;36329;48.816;44.624;2023-04-25T09:38:26;100351;;;17.8;81.8
49583;BME280;36329;48.816;44.624;2023-04-25T09:41:28;100350;;;17.7;82.1
49583;BME280;36329;48.816;44.624;2023-04-25T09:44:31;100358;;;17.8;81.9
49583;BME280;36329;48.816;44.624;2023-04-25T09:47:37;100353;;;17.7;82.7
49583;BME280;36329;48.816;44.624;2023-04-25T09:50:40;100353;;;18.6;78.6
49583;BME280;36329;48.816;44.624;2023-04-25T09:53:43;100352;;;19;75.1
49583;BME280;36329;48.816;44.624;2023-04-25T09:56:47;100349;;;18.3;79.1
49583;BME280;36329;48.816;44.624;2023-04-25T09:59:52;100350;;;18;80.7
49583;BME280;36329;48.816;44.624;2023-04-25T10:02:55;100344;;;17.8;82.7
49583;BME280;36329;48.816;44.624;2023-04-25T10:06:00;100349;;;17.7;81.6
49583;BME280;36329;48.816;44.624;2023-04-25T10:09:02;100351;;;18.2;79.8
49583;BME280;36329;48.816;44.624;2023-04-25T10:12:05;100356;;;18.2;80.5
49583;BME280;36329;48.816;44.624;2023-04-25T10:15:08;100362;;;18.1;79.9
49583;BME280;36329;48.816;44.624;2023-04-25T10:18:11;100365;;;18;80.8
49583;BME280;36329;48.816;44.624;2023-04-25T10:21:14;100359;;;18.2;81.5
49583;BME280;36329;48.816;44.624;2023-04-25T10:24:19;100363;;;18.3;76.1
49583;BME280;36329;48.816;44.624;2023-04-25T10:27:22;100363;;;18.3;78.6
49583;BME280;36329;48.816;44.624;2023-04-25T10:30:24;100359;;;18.2;78.6
49583;BME280;36329;48.816;44.624;2023-04-25T10:33:33;100353;;;18.2;78.3
49583;BME280;36329;48.816;44.624;2023-04-25T10:36:36;100360;;;19.4;74
49583;BME280;36329;48.816;44.624;2023-04-25T10:39:40;100369;;;19;72.4
49583;BME280;36329;48.816;44.624;2023-04-25T10:42:42;100359;;;18.3;73.3
49583;BME280;36329;48.816;44.624;2023-04-25T10:45:51;100362;;;18.4;73.9
49583;BME280;36329;48.816;44.624;2023-04-25T10:48:55;100360;;;19;72.6
49583;BME280;36329;48.816;44.624;2023-04-25T10:52:12;100361;;;19.2;70.2
49583;BME280;36329;48.816;44.624;2023-04-25T10:55:14;100367;;;19.2;71.7
49583;BME280;36329;48.816;44.624;2023-04-25T10:58:20;100370;;;19.1;71.4
49583;BME280;36329;48.816;44.624;2023-04-25T11:01:24;100374;;;19.1;70.1
49583;BME280;36329;48.816;44.624;2023-04-25T11:04:30;100366;;;18.6;72.4
49583;BME280;36329;48.816;44.624;2023-04-25T11:07:37;100367;;;18.9;73.1
49583;BME280;36329;48.816;44.624;2023-04-25T11:10:40;100362;;;19.3;70.2
49583;BME280;36329;48.816;44.624;2023-04-25T11:13:43;100373;;;19.2;68
49583;BME280;36329;48.816;44.624;2023-04-25T11:16:45;100385;;;19.1;69.4
49583;BME280;36329;48.816;44.624;2023-04-25T11:19:48;100384;;;18.9;71
49583;BME280;36329;48.816;44.624;2023-04-25T11:22:50;100382;;;19;69.8
49583;BME280;36329;48.816;44.624;2023-04-25T11:25:52;100377;;;18.7;68.8
49583;BME280;36329;48.816;44.624;2023-04-25T11:28:57;100379;;;18.7;69.1
49583;BME280;36329;48.816;44.624;2023-04-25T11:31:59;100370;;;18.8;71.4
49583;BME280;36329;48.816;44.624;2023-04-25T11:35:02;100366;;;19;70.8
49583;BME280;36329;48.816;44.624;2023-04-25T11:38:05;100369;;;19.2;69.8
49583;BME280;36329;48.816;44.624;2023-04-25T11:41:08;100368;;;19.4;66.6
49583;BME280;36329;48.816;44.624;2023-04-25T11:44:11;100379;;;18.9;66.5
49583;BME280;36329;48.816;44.624;2023-04-25T11:47:13;100372;;;19;66.3
49583;BME280;36329;48.816;44.624;2023-04-25T11:50:15;100367;;;18.9;66.1
49583;BME280;36329;48.816;44.624;2023-04-25T11:53:17;100360;;;18.7;65.4
49583;BME280;36329;48.816;44.624;2023-04-25T11:56:20;100355;;;18.5;67.1
49583;BME280;36329;48.816;44.624;2023-04-25T11:59:23;100356;;;18.8;67.3
49583;BME280;36329;48.816;44.624;2023-04-25T12:02:26;100351;;;19.1;68.7
49583;BME280;36329;48.816;44.624;2023-04-25T12:05:30;100345;;;19.4;67.1
49583;BME280;36329;48.816;44.624;2023-04-25T12:08:33;100353;;;18.9;67.6
49583;BME280;36329;48.816;44.624;2023-04-25T12:11:41;100356;;;18.7;67.9
49583;BME280;36329;48.816;44.624;2023-04-25T12:14:46;100356;;;18.7;68.4
49583;BME280;36329;48.816;44.624;2023-04-25T12:17:50;100358;;;19;67
49583;BME280;36329;48.816;44.624;2023-04-25T12:20:52;100360;;;18.6;68.8
49583;BME280;36329;48.816;44.624;2023-04-25T12:23:55;100372;;;18.7;70
49583;BME280;36329;48.816;44.624;2023-04-25T12:27:03;100377;;;18.6;69.5
49583;BME280;36329;48.816;44.624;2023-04-25T12:30:08;100378;;;18.5;74
49583;BME280;36329;48.816;44.624;2023-04-25T12:33:10;100387;;;18.6;68.3
49583;BME280;36329;48.816;44.624;2023-04-25T12:36:13;100384;;;18.3;68.8
49583;BME280;36329;48.816;44.624;2023-04-25T12:39:16;100384;;;18.5;67.9
49583;BME280;36329;48.816;44.624;2023-04-25T12:42:18;100386;;;18.3;67.5
49583;BME280;36329;48.816;44.624;2023-04-25T12:45:21;100390;;;18.4;68.8
49583;BME280;36329;48.816;44.624;2023-04-25T12:48:23;100390;;;18.3;65.8
49583;BME280;36329;48.816;44.624;2023-04-25T12:51:27;100403;;;18.5;65.7
49583;BME280;36329;48.816;44.624;2023-04-25T12:54:29;100398;;;18;67
49583;BME280;36329;48.816;44.624;2023-04-25T12:57:31;100405;;;18.1;66.8
49583;BME280;36329;48.816;44.624;2023-04-25T13:00:33;100404;;;18.1;66.6
49583;BME280;36329;48.816;44.624;2023-04-25T13:03:35;100406;;;17.9;67
49583;BME280;36329;48.816;44.624;2023-04-25T13:06:38;100411;;;17.9;67.1
49583;BME280;36329;48.816;44.624;2023-04-25T13:09:40;100407;;;17.9;68.2
49583;BME280;36329;48.816;44.624;2023-04-25T13:12:42;100402;;;18.2;67.6
49583;BME280;36329;48.816;44.624;2023-04-25T13:15:44;100400;;;18.2;66.2
49583;BME280;36329;48.816;44.624;2023-04-25T13:18:47;100402;;;18.2;66.4
49583;BME280;36329;48.816;44.624;2023-04-25T13:21:49;100401;;;18.1;68.1
49583;BME280;36329;48.816;44.624;2023-04-25T13:24:51;100400;;;18.2;67.2
49583;BME280;36329;48.816;44.624;2023-04-25T13:27:53;100401;;;18.1;66.2
49583;BME280;36329;48.816;44.624;2023-04-25T13:30:56;100405;;;18.2;65.8
49583;BME280;36329;48.816;44.624;2023-04-25T13:33:58;100401;;;18.2;66.6
49583;BME280;36329;48.816;44.624;2023-04-25T13:37:03;100395;;;18.1;66
49583;BME280;36329;48.816;44.624;2023-04-25T13:40:12;100397;;;18.2;65.3
49583;BME280;36329;48.816;44.624;2023-04-25T13:43:14;100388;;;18.4;65.5
49583;BME280;36329;48.816;44.624;2023-04-25T13:46:16;100390;;;18.2;62.9
49583;BME280;36329;48.816;44.624;2023-04-25T13:49:18;100389;;;18.3;63
49583;BME280;36329;48.816;44.624;2023-04-25T13:52:21;100390;;;18.2;63.2
49583;BME280;36329;48.816;44.624;2023-04-25T13:55:25;100388;;;18.2;63.1
49583;BME280;36329;48.816;44.624;2023-04-25T13:58:28;100388;;;17.8;63.5
49583;BME280;36329;48.816;44.624;2023-04-25T14:01:30;100375;;;17.9;63
49583;BME280;36329;48.816;44.624;2023-04-25T14:04:33;100378;;;17.9;63.8
49583;BME280;36329;48.816;44.624;2023-04-25T14:07:35;100379;;;17.9;63.3
49583;BME280;36329;48.816;44.624;2023-04-25T14:10:37;100376;;;17.9;63
49583;BME280;36329;48.816;44.624;2023-04-25T14:13:39;100377;;;17.9;62.9
49583;BME280;36329;48.816;44.624;2023-04-25T14:16:41;100388;;;17.9;62.9
49583;BME280;36329;48.816;44.624;2023-04-25T14:19:43;100382;;;17.8;62.5
49583;BME280;36329;48.816;44.624;2023-04-25T14:22:46;100384;;;17.8;62.6
49583;BME280;36329;48.816;44.624;2023-04-25T14:25:48;100397;;;17.9;62.1
49583;BME280;36329;48.816;44.624;2023-04-25T14:28:51;100395;;;17.8;62.3
49583;BME280;36329;48.816;44.624;2023-04-25T14:31:53;100394;;;17.7;62.1
49583;BME280;36329;48.816;44.624;2023-04-25T14:34:55;100401;;;17.5;62.5
49583;BME280;36329;48.816;44.624;2023-04-25T14:37:57;100395;;;17.5;62.5
49583;BME280;36329;48.816;44.624;2023-04-25T14:41:00;100388;;;17.4;61.5
49583;BME280;36329;48.816;44.624;2023-04-25T14:44:02;100383;;;17.4;61.8
49583;BME280;36329;48.816;44.624;2023-04-25T14:47:04;100390;;;17.3;61.6
49583;BME280;36329;48.816;44.624;2023-04-25T14:50:07;100399;;;17.2;61.2
49583;BME280;36329;48.816;44.624;2023-04-25T14:53:09;100400;;;17;61.7
49583;BME280;36329;48.816;44.624;2023-04-25T14:56:11;100396;;;17;62
49583;BME280;36329;48.816;44.624;2023-04-25T14:59:14;100408;;;16.9;63.1
49583;BME280;36329;48.816;44.624;2023-04-25T15:02:16;100408;;;17;63
49583;BME280;36329;48.816;44.624;2023-04-25T15:05:18;100412;;;17;63.2
49583;BME280;36329;48.816;44.624;2023-04-25T15:08:21;100423;;;16.9;64.5
49583;BME280;36329;48.816;44.624;2023-04-25T15:11:23;100427;;;16.7;64.5
49583;BME280;36329;48.816;44.624;2023-04-25T15:14:25;100421;;;16.5;65.1
49583;BME280;36329;48.816;44.624;2023-04-25T15:17:27;100423;;;16.5;66
49583;BME280;36329;48.816;44.624;2023-04-25T15:20:29;100428;;;16.7;65.6
49583;BME280;36329;48.816;44.624;2023-04-25T15:23:31;100428;;;16.6;65.2
49583;BME280;36329;48.816;44.624;2023-04-25T15:26:34;100432;;;16.6;66
49583;BME280;36329;48.816;44.624;2023-04-25T15:29:36;100427;;;16.6;65.5
49583;BME280;36329;48.816;44.624;2023-04-25T15:32:38;100432;;;16.4;66.3
49583;BME280;36329;48.816;44.624;2023-04-25T15:35:40;100433;;;16.2;67.4
49583;BME280;36329;48.816;44.624;2023-04-25T15:38:43;100436;;;16;67.5
49583;BME280;36329;48.816;44.624;2023-04-25T15:41:46;100439;;;15.9;68.7
49583;BME280;36329;48.816;44.624;2023-04-25T15:44:48;100441;;;15.9;67.6
49583;BME280;36329;48.816;44.624;2023-04-25T15:47:50;100422;;;15.8;67.3
49583;BME280;36329;48.816;44.624;2023-04-25T15:50:53;100431;;;15.9;66.9
49583;BME280;36329;48.816;44.624;2023-04-25T15:53:56;100428;;;15.8;66.2
49583;BME280;36329;48.816;44.624;2023-04-25T15:56:59;100429;;;15.7;66
49583;BME280;36329;48.816;44.624;2023-04-25T16:00:02;100431;;;15.8;66.9
49583;BME280;36329;48.816;44.624;2023-04-25T16:03:06;100441;;;15.7;66.7
49583;BME280;36329;48.816;44.624;2023-04-25T16:06:09;100438;;;15.6;66.9
49583;BME280;36329;48.816;44.624;2023-04-25T16:09:11;100441;;;15.6;66.6
49583;BME280;36329;48.816;44.624;2023-04-25T16:12:14;100444;;;15.7;67.5
49583;BME280;36329;48.816;44.624;2023-04-25T16:15:17;100445;;;15.5;68.4
49583;BME280;36329;48.816;44.624;2023-04-25T16:18:19;100444;;;15.5;69.6
49583;BME280;36329;48.816;44.624;2023-04-25T16:21:21;100455;;;15.3;70.5
49583;BME280;36329;48.816;44.624;2023-04-25T16:24:23;100454;;;15.3;71.4
49583;BME280;36329;48.816;44.624;2023-04-25T16:27:26;100454;;;15.2;72.6
49583;BME280;36329;48.816;44.624;2023-04-25T16:30:28;100461;;;15;73.6
49583;BME280;36329;48.816;44.624;2023-04-25T16:33:30;100458;;;15.1;73.9
49583;BME280;36329;48.816;44.624;2023-04-25T16:36:32;100460;;;15;74.1
49583;BME280;36329;48.816;44.624;2023-04-25T16:39:34;100465;;;15;75
49583;BME280;36329;48.816;44.624;2023-04-25T16:42:36;100466;;;14.9;75.1
49583;BME280;36329;48.816;44.624;2023-04-25T16:45:39;100465;;;14.7;76.3
49583;BME280;36329;48.816;44.624;2023-04-25T16:48:41;100472;;;14.7;77.2
49583;BME280;36329;48.816;44.624;2023-04-25T16:51:43;100482;;;14.8;77.6
49583;BME280;36329;48.816;44.624;2023-04-25T16:54:45;100490;;;14.6;78.3
49583;BME280;36329;48.816;44.624;2023-04-25T16:57:48;100484;;;14.4;79.5
49583;BME280;36329;48.816;44.624;2023-04-25T17:00:51;100489;;;14.4;80.3